Bebe, Texas
Current Conditions -  °F | °C
As of 3:35 PM on Friday 28 Nov 2014 (Local Time) from KT20 Reporting Station
Clear Clear  
Wind Chill: 74°   Ceiling: Unl
Heat Index: 74°   Visibility: 10mi
Dew Point: 49°   Wind: 15mph
Humidity: 40%   Direction: 200°SSW
Pressure: 30.13"   Gusts: 20mph
Location:  29.41°N, 97.64°W
Report Text: KT20 282135Z AUTO 20013G17KT 10SM CLR 24/09 A3013 RMK AO2 T02360093
Loading
Personal Weather Stations






























Interactive Weather Map New forecast layout! Learn more

10-Day Weather Forecast

Advertisements
Track Severe Weather on mobile